createdAt,value
2023-04-01T00:00:36.893Z,92.53
2023-04-01T00:01:36.874Z,91.86
2023-04-01T00:02:36.928Z,91.86
2023-04-01T00:03:37.049Z,92.36
2023-04-01T00:04:36.888Z,92.12
2023-04-01T00:05:36.850Z,91.86
2023-04-01T00:06:36.859Z,92.06
2023-04-01T00:07:36.835Z,91.91
2023-04-01T00:08:36.843Z,92.02
2023-04-01T00:09:36.831Z,92.27
2023-04-01T00:10:36.803Z,92.47
2023-04-01T00:11:36.861Z,92.57
2023-04-01T00:12:36.790Z,92.68
2023-04-01T00:13:36.804Z,92.10
2023-04-01T00:14:36.785Z,93.13
2023-04-01T00:15:36.798Z,92.98
2023-04-01T00:16:36.809Z,92.51
2023-04-01T00:17:36.803Z,92.57
2023-04-01T00:18:36.761Z,92.47
2023-04-01T00:19:36.729Z,92.27
2023-04-01T00:20:36.735Z,92.27
2023-04-01T00:21:36.716Z,92.27
2023-04-01T00:23:36.438Z,92.16
2023-04-01T00:24:36.452Z,91.75
2023-04-01T00:25:37.521Z,92.16
2023-04-01T00:26:37.542Z,91.86
2023-04-01T00:27:37.513Z,92.47
2023-04-01T00:28:37.542Z,91.86
2023-04-01T00:29:37.490Z,91.96
2023-04-01T00:30:37.516Z,91.96
2023-04-01T00:31:37.497Z,92.27
2023-04-01T00:32:37.504Z,92.47
2023-04-01T00:33:37.462Z,92.16
2023-04-01T00:34:37.456Z,91.86
2023-04-01T00:35:37.474Z,91.55
2023-04-01T00:36:37.484Z,91.44
2023-04-01T00:37:37.443Z,91.86
2023-04-01T00:38:37.414Z,92.47
2023-04-01T00:39:37.420Z,92.16
2023-04-01T00:40:37.413Z,92.06
2023-04-01T00:41:37.415Z,92.36
2023-04-01T00:42:37.393Z,92.16
2023-04-01T00:43:37.919Z,91.96
2023-04-01T00:44:37.366Z,92.16
2023-04-01T00:45:37.383Z,92.57
2023-04-01T00:46:37.373Z,92.47
2023-04-01T00:47:38.344Z,92.06
2023-04-01T00:48:37.364Z,92.27
2023-04-01T00:49:37.330Z,92.16
2023-04-01T00:50:37.327Z,92.36
2023-04-01T00:51:37.328Z,91.86
2023-04-01T00:52:37.300Z,92.16
2023-04-01T00:53:37.304Z,91.55
2023-04-01T00:54:37.301Z,92.36
2023-04-01T00:55:38.277Z,92.47
2023-04-01T00:56:37.277Z,91.80
2023-04-01T00:57:37.272Z,92.27
2023-04-01T00:58:37.271Z,92.27
2023-04-01T00:59:37.243Z,92.36
2023-04-01T01:00:37.323Z,92.16
2023-04-01T01:01:38.252Z,91.96
2023-04-01T01:02:37.346Z,92.36
2023-04-01T01:03:37.222Z,92.27
2023-04-01T01:04:37.205Z,92.21
2023-04-01T01:05:48.146Z,92.27
2023-04-01T01:06:38.199Z,92.36
2023-04-01T01:07:37.193Z,92.61
2023-04-01T01:08:37.201Z,92.93
2023-04-01T01:09:37.177Z,93.02
2023-04-01T01:10:37.165Z,92.41
2023-04-01T01:11:42.772Z,92.21
2023-04-01T01:12:39.155Z,92.41
2023-04-01T01:13:37.181Z,92.61
2023-04-01T01:14:37.130Z,93.33
2023-04-01T01:15:37.815Z,92.72
2023-04-01T01:16:37.175Z,92.68
2023-04-01T01:17:37.131Z,92.36
2023-04-01T01:18:37.112Z,92.06
2023-04-01T01:19:37.090Z,92.68
2023-04-01T01:20:37.094Z,92.41
2023-04-01T01:21:37.887Z,92.31
2023-04-01T01:22:38.074Z,92.31
2023-04-01T01:23:37.905Z,92.61
2023-04-01T01:24:37.056Z,92.16
2023-04-01T01:25:37.047Z,92.21
2023-04-01T01:26:37.049Z,92.31
2023-04-01T01:27:37.064Z,93.33
2023-04-01T01:28:37.012Z,92.31
2023-04-01T01:29:37.020Z,92.31
2023-04-01T01:30:37.011Z,92.00
2023-04-01T01:31:37.002Z,92.82
2023-04-01T01:32:37.014Z,92.41
2023-04-01T01:33:36.975Z,92.41
2023-04-01T01:34:38.436Z,92.51
2023-04-01T01:35:36.965Z,92.31
2023-04-01T01:36:36.957Z,92.10
2023-04-01T01:37:37.922Z,92.10
2023-04-01T01:38:36.944Z,92.41
2023-04-01T01:39:36.930Z,92.41
2023-04-01T01:40:36.916Z,92.51
2023-04-01T01:41:36.902Z,92.51
2023-04-01T01:42:36.973Z,92.41
2023-04-01T01:43:36.893Z,92.61
2023-04-01T01:44:37.904Z,92.36
2023-04-01T01:45:36.899Z,91.96
2023-04-01T01:46:36.965Z,92.31
2023-04-01T01:47:37.455Z,92.31
2023-04-01T01:48:36.867Z,92.21
2023-04-01T01:49:36.840Z,92.10
2023-04-01T01:50:36.836Z,92.10
2023-04-01T01:51:36.820Z,92.31
2023-04-01T01:52:36.823Z,91.69
2023-04-01T01:53:37.421Z,91.55
2023-04-01T01:54:36.797Z,91.80
2023-04-01T01:55:36.785Z,91.75
2023-04-01T01:56:36.775Z,91.55
2023-04-01T01:57:36.782Z,91.86
2023-04-01T01:58:36.769Z,91.14
2023-04-01T01:59:36.759Z,91.38
2023-04-01T02:00:36.763Z,91.14
2023-04-01T02:01:36.898Z,91.35
2023-04-01T02:02:36.798Z,91.28
2023-04-01T02:03:36.731Z,91.03
2023-04-01T02:04:36.752Z,90.67
2023-04-01T02:05:36.721Z,91.38
2023-04-01T02:06:36.703Z,91.18
2023-04-01T02:07:36.729Z,91.08
2023-04-01T02:08:36.696Z,90.83
2023-04-01T02:09:36.682Z,91.28
2023-04-01T02:10:36.656Z,91.18
2023-04-01T02:11:36.692Z,91.03
2023-04-01T02:12:36.652Z,91.18
2023-04-01T02:13:36.643Z,90.97
2023-04-01T02:14:36.637Z,90.93
2023-04-01T02:15:36.700Z,90.73
2023-04-01T02:16:36.602Z,91.14
2023-04-01T02:17:36.659Z,90.87
2023-04-01T02:18:36.602Z,90.93
2023-04-01T02:19:36.597Z,90.73
2023-04-01T02:20:36.590Z,91.08
2023-04-01T02:21:36.593Z,90.93
2023-04-01T02:22:36.581Z,91.24
2023-04-01T02:23:36.563Z,90.77
2023-04-01T02:24:36.571Z,90.46
2023-04-01T02:25:36.542Z,90.93
2023-04-01T02:26:36.540Z,90.97
2023-04-01T02:27:36.551Z,90.42
2023-04-01T02:28:36.516Z,90.56
2023-04-01T02:29:36.526Z,90.52
2023-04-01T02:30:36.504Z,90.42
2023-04-01T02:31:37.546Z,90.46
2023-04-01T02:32:36.540Z,90.11
2023-04-01T02:33:36.491Z,90.73
2023-04-01T02:34:36.470Z,90.11
2023-04-01T02:35:36.476Z,90.56
2023-04-01T02:36:36.469Z,90.32
2023-04-01T02:37:39.145Z,90.22
2023-04-01T02:38:36.464Z,90.73
2023-04-01T02:39:36.427Z,90.93
2023-04-01T02:40:36.430Z,90.32
2023-04-01T02:41:36.427Z,89.95
2023-04-01T02:42:36.417Z,90.22
2023-04-01T02:43:37.340Z,90.11
2023-04-01T02:44:36.415Z,90.22
2023-04-01T02:45:36.391Z,90.22
2023-04-01T02:46:36.390Z,90.22
2023-04-01T02:47:36.444Z,90.26
2023-04-01T02:48:36.379Z,90.01
2023-04-01T02:49:36.364Z,90.26
2023-04-01T02:50:36.353Z,90.11
2023-04-01T02:51:36.362Z,89.84
2023-04-01T02:52:36.355Z,89.39
2023-04-01T02:53:36.344Z,89.39
2023-04-01T02:54:36.339Z,89.29
2023-04-01T02:55:36.306Z,89.09
2023-04-01T02:56:37.935Z,89.29
2023-04-01T02:57:36.293Z,89.43
2023-04-01T02:58:36.300Z,89.39
2023-04-01T02:59:36.284Z,89.33
2023-04-01T03:00:36.915Z,89.09
2023-04-01T03:01:37.342Z,89.39
2023-04-01T03:02:36.318Z,89.19
2023-04-01T03:03:36.274Z,89.29
2023-04-01T03:04:36.235Z,89.09
2023-04-01T03:05:36.315Z,89.09
2023-04-01T03:06:36.242Z,89.09
2023-04-01T03:07:36.232Z,88.78
2023-04-01T03:08:36.206Z,89.09
2023-04-01T03:09:36.203Z,88.98
2023-04-01T03:10:36.205Z,89.19
2023-04-01T03:11:36.186Z,88.78
2023-04-01T03:12:36.189Z,89.29
2023-04-01T03:13:36.169Z,89.09
2023-04-01T03:14:36.169Z,89.29
2023-04-01T03:15:36.143Z,89.39
2023-04-01T03:16:36.210Z,89.29
2023-04-01T03:17:36.186Z,89.39
2023-04-01T03:18:36.131Z,89.60
2023-04-01T03:19:36.123Z,89.60
2023-04-01T03:20:36.105Z,89.60
2023-04-01T03:21:36.471Z,89.29
2023-04-01T03:22:36.939Z,89.50
2023-04-01T03:23:36.102Z,89.39
2023-04-01T03:24:36.083Z,89.64
2023-04-01T03:25:36.078Z,89.50
2023-04-01T03:26:36.067Z,89.84
2023-04-01T03:27:36.067Z,89.60
2023-04-01T03:28:36.049Z,89.70
2023-04-01T03:29:36.083Z,89.84
2023-04-01T03:30:36.091Z,89.64
2023-04-01T03:31:36.065Z,89.43
2023-04-01T03:32:36.065Z,89.90
2023-04-01T03:33:35.999Z,90.05
2023-04-01T03:34:36.008Z,90.16
2023-04-01T03:35:35.986Z,90.46
2023-04-01T03:36:35.999Z,90.36
2023-04-01T03:37:36.083Z,90.16
2023-04-01T03:38:36.009Z,90.87
2023-04-01T03:39:35.965Z,90.87
2023-04-01T03:40:35.942Z,90.97
2023-04-01T03:41:35.950Z,90.87
2023-04-01T03:42:35.965Z,91.08
2023-04-01T03:43:35.939Z,91.08
2023-04-01T03:44:35.934Z,91.28
2023-04-01T03:45:35.926Z,90.77
2023-04-01T03:46:36.019Z,91.59
2023-04-01T03:47:35.967Z,91.38
2023-04-01T03:48:36.850Z,91.18
2023-04-01T03:49:35.886Z,91.02
2023-04-01T03:50:35.878Z,90.87
2023-04-01T03:51:35.865Z,90.67
2023-04-01T03:52:35.876Z,91.28
2023-04-01T03:53:35.945Z,91.38
2023-04-01T03:54:35.844Z,91.33
2023-04-01T03:55:35.830Z,91.33
2023-04-01T03:56:35.842Z,91.02
2023-04-01T03:57:35.868Z,91.12
2023-04-01T03:58:35.804Z,91.08
2023-04-01T03:59:35.800Z,90.71
2023-04-01T04:00:35.781Z,90.87
2023-04-01T04:01:36.773Z,90.97
2023-04-01T04:02:36.486Z,90.71
2023-04-01T04:03:35.928Z,91.12
2023-04-01T04:04:37.467Z,90.81
2023-04-01T04:05:36.094Z,90.71
2023-04-01T04:06:35.786Z,91.02
2023-04-01T04:07:35.740Z,90.91
2023-04-01T04:08:36.739Z,91.22
2023-04-01T04:09:35.739Z,91.63
2023-04-01T04:10:36.369Z,91.12
2023-04-01T04:11:36.862Z,90.61
2023-04-01T04:12:38.439Z,90.50
2023-04-01T04:13:36.384Z,90.61
2023-04-01T04:14:35.694Z,90.61
2023-04-01T04:15:35.685Z,90.20
2023-04-01T04:16:36.514Z,89.99
2023-04-01T04:17:35.695Z,90.50
2023-04-01T04:18:35.698Z,90.30
2023-04-01T04:19:35.715Z,90.30
2023-04-01T04:20:35.624Z,90.71
2023-04-01T04:21:38.446Z,90.61
2023-04-01T04:22:35.621Z,90.61
2023-04-01T04:23:35.603Z,90.30
2023-04-01T04:24:35.609Z,90.61
2023-04-01T04:25:35.590Z,89.78
2023-04-01T04:26:35.592Z,89.99
2023-04-01T04:27:35.570Z,90.91
2023-04-01T04:28:35.565Z,90.50
2023-04-01T04:29:35.559Z,90.91
2023-04-01T04:30:35.545Z,90.91
2023-04-01T04:31:35.581Z,91.22
2023-04-01T04:32:35.565Z,90.81
2023-04-01T04:33:36.382Z,91.33
2023-04-01T04:34:35.531Z,91.02
2023-04-01T04:35:35.944Z,91.33
2023-04-01T04:36:35.518Z,91.22
2023-04-01T04:37:35.514Z,91.12
2023-04-01T04:38:35.488Z,91.37
2023-04-01T04:39:35.482Z,91.22
2023-04-01T04:40:35.460Z,91.42
2023-04-01T04:41:37.626Z,90.81
2023-04-01T04:42:36.451Z,91.27
2023-04-01T04:43:35.472Z,91.02
2023-04-01T04:44:35.467Z,91.37
2023-04-01T04:45:37.354Z,91.27
2023-04-01T04:46:35.490Z,91.33
2023-04-01T04:47:35.439Z,91.27
2023-04-01T04:48:35.398Z,91.27
2023-04-01T04:49:36.392Z,91.27
2023-04-01T04:50:35.388Z,91.63
2023-04-01T04:51:35.391Z,90.65
2023-04-01T04:52:35.371Z,90.85
2023-04-01T04:53:35.373Z,91.67
2023-04-01T04:54:35.374Z,91.22
2023-04-01T04:55:35.558Z,91.63
2023-04-01T04:56:35.343Z,91.06
2023-04-01T04:57:35.391Z,90.55
2023-04-01T04:58:35.332Z,90.91
2023-04-01T04:59:35.318Z,90.81
2023-04-01T05:00:35.325Z,90.81
2023-04-01T05:01:35.329Z,90.14
2023-04-01T05:02:35.366Z,90.50
2023-04-01T05:03:35.705Z,90.20
2023-04-01T05:04:35.269Z,90.71
2023-04-01T05:05:35.255Z,90.50
2023-04-01T05:06:35.270Z,91.02
2023-04-01T05:07:35.261Z,90.91
2023-04-01T05:08:35.240Z,91.12
2023-04-01T05:09:35.223Z,90.91
2023-04-01T05:10:36.225Z,90.81
2023-04-01T05:11:35.217Z,91.02
2023-04-01T05:12:35.218Z,91.12
2023-04-01T05:13:35.198Z,91.16
2023-04-01T05:14:35.193Z,90.95
2023-04-01T05:15:35.470Z,91.06
2023-04-01T05:16:35.989Z,90.71
2023-04-01T05:17:35.216Z,90.71
2023-04-01T05:18:35.153Z,90.91
2023-04-01T05:19:35.143Z,90.09
2023-04-01T05:20:35.142Z,89.99
2023-04-01T05:21:35.141Z,90.30
2023-04-01T05:22:35.158Z,90.50
2023-04-01T05:23:35.165Z,90.30
2023-04-01T05:24:35.879Z,89.99
2023-04-01T05:25:35.346Z,89.48
2023-04-01T05:26:35.099Z,90.20
2023-04-01T05:27:37.886Z,90.30
2023-04-01T05:28:35.088Z,89.84
2023-04-01T05:29:35.093Z,89.99
2023-04-01T05:30:35.089Z,89.13
2023-04-01T05:31:35.078Z,89.58
2023-04-01T05:32:35.086Z,90.50
2023-04-01T05:33:35.042Z,89.23
2023-04-01T05:34:35.037Z,89.64
2023-04-01T05:35:35.287Z,89.13
2023-04-01T05:36:35.014Z,89.23
2023-04-01T05:37:36.015Z,89.23
2023-04-01T05:38:34.992Z,89.23
2023-04-01T05:39:34.995Z,89.09
2023-04-01T05:40:34.996Z,88.47
2023-04-01T05:41:34.975Z,88.68
2023-04-01T05:42:37.688Z,88.47
2023-04-01T05:43:34.966Z,88.88
2023-04-01T05:44:35.884Z,87.82
2023-04-01T05:45:35.153Z,88.17
2023-04-01T05:46:35.070Z,87.92
2023-04-01T05:47:34.948Z,87.96
2023-04-01T05:48:34.930Z,87.82
2023-04-01T05:49:34.910Z,88.02
2023-04-01T05:50:34.909Z,88.02
2023-04-01T05:51:34.899Z,87.92
2023-04-01T05:52:34.904Z,87.92
2023-04-01T05:53:34.885Z,88.33
2023-04-01T05:54:34.882Z,87.76
2023-04-01T05:55:35.047Z,88.57
2023-04-01T05:56:34.879Z,88.43
2023-04-01T05:57:34.969Z,88.43
2023-04-01T05:58:34.837Z,88.06
2023-04-01T05:59:34.852Z,88.17
2023-04-01T06:00:34.821Z,88.53
2023-04-01T06:01:34.832Z,88.53
2023-04-01T06:02:34.933Z,88.02
2023-04-01T06:03:34.929Z,88.02
2023-04-01T06:04:34.861Z,87.65
2023-04-01T06:05:35.046Z,88.02
2023-04-01T06:06:34.797Z,88.12
2023-04-01T06:07:34.773Z,88.23
2023-04-01T06:08:34.785Z,88.43
2023-04-01T06:09:34.766Z,89.15
2023-04-01T06:10:34.743Z,89.19
2023-04-01T06:11:34.736Z,88.94
2023-04-01T06:12:35.743Z,89.19
2023-04-01T06:13:34.731Z,89.36
2023-04-01T06:14:34.713Z,89.25
2023-04-01T06:15:34.997Z,89.66
2023-04-01T06:16:34.749Z,89.56
2023-04-01T06:17:34.716Z,89.36
2023-04-01T06:18:34.680Z,89.25
2023-04-01T06:19:34.669Z,89.36
2023-04-01T06:20:34.675Z,89.11
2023-04-01T06:21:34.685Z,88.70
2023-04-01T06:22:34.692Z,88.70
2023-04-01T06:23:35.393Z,88.64
2023-04-01T06:24:34.647Z,88.90
2023-04-01T06:25:34.966Z,88.90
2023-04-01T06:26:34.625Z,88.90
2023-04-01T06:27:34.648Z,89.11
2023-04-01T06:28:34.608Z,89.00
2023-04-01T06:29:35.392Z,88.29
2023-04-01T06:30:34.600Z,88.80
2023-04-01T06:31:34.598Z,88.86
2023-04-01T06:32:34.589Z,88.24
2023-04-01T06:33:34.584Z,88.35
2023-04-01T06:34:34.561Z,88.49
2023-04-01T06:35:34.803Z,88.49
2023-04-01T06:36:34.622Z,88.80
2023-04-01T06:37:35.553Z,89.31
2023-04-01T06:38:35.398Z,89.21
2023-04-01T06:39:34.554Z,88.90
2023-04-01T06:40:34.527Z,88.96
2023-04-01T06:41:34.535Z,88.56
2023-04-01T06:42:35.484Z,88.45
2023-04-01T06:43:34.506Z,88.24
2023-04-01T06:44:34.483Z,88.00
2023-04-01T06:45:34.756Z,87.94
2023-04-01T06:46:34.463Z,88.10
2023-04-01T06:47:34.471Z,87.70
2023-04-01T06:48:34.478Z,88.04
2023-04-01T06:49:34.482Z,88.35
2023-04-01T06:50:34.425Z,88.24
2023-04-01T06:51:35.972Z,88.10
2023-04-01T06:52:35.007Z,87.90
2023-04-01T06:53:34.411Z,87.79
2023-04-01T06:54:34.473Z,87.79
2023-04-01T06:55:34.614Z,87.59
2023-04-01T06:56:34.421Z,87.70
2023-04-01T06:57:34.371Z,87.29
2023-04-01T06:58:35.052Z,87.14
2023-04-01T06:59:34.373Z,87.14
2023-04-01T07:00:34.351Z,86.43
2023-04-01T07:01:34.415Z,86.77
2023-04-01T07:02:35.353Z,86.36
2023-04-01T07:03:34.367Z,86.26
2023-04-01T07:04:34.369Z,86.26
2023-04-01T07:05:34.474Z,86.46
2023-04-01T07:07:07.969Z,86.57
2023-04-01T07:08:06.536Z,85.96
2023-04-01T07:09:06.987Z,85.81
2023-04-01T07:09:34.282Z,86.46
2023-04-01T07:10:34.269Z,86.16
2023-04-01T07:11:34.390Z,86.12
2023-04-01T07:12:34.275Z,85.75
2023-04-01T07:13:34.289Z,85.61
2023-04-01T07:15:06.559Z,85.96
2023-04-01T07:16:07.086Z,85.85
2023-04-01T07:16:34.277Z,85.96
2023-04-01T07:18:07.622Z,86.26
2023-04-01T07:19:07.148Z,86.67
2023-04-01T07:19:34.194Z,86.36
2023-04-01T07:20:34.218Z,86.43
2023-04-01T07:21:34.172Z,86.43
2023-04-01T07:22:34.162Z,86.43
2023-04-01T07:23:34.159Z,85.91
2023-04-01T07:24:36.634Z,85.71
2023-04-01T07:25:34.376Z,85.71
2023-04-01T07:26:34.138Z,85.91
2023-04-01T07:27:34.132Z,86.02
2023-04-01T07:29:07.170Z,86.12
2023-04-01T07:29:34.130Z,86.53
2023-04-01T07:30:34.095Z,86.83
2023-04-01T07:31:34.218Z,86.16
2023-04-01T07:32:36.047Z,86.43
2023-04-01T07:33:35.079Z,86.22
2023-04-01T07:34:34.064Z,86.12
2023-04-01T07:35:34.264Z,86.22
2023-04-01T07:36:34.094Z,86.32
2023-04-01T07:37:34.065Z,86.46
2023-04-01T07:38:34.030Z,86.36
2023-04-01T07:39:34.012Z,86.02
2023-04-01T07:40:34.664Z,85.81
2023-04-01T07:41:34.010Z,85.96
2023-04-01T07:42:34.010Z,85.91
2023-04-01T07:43:33.989Z,85.81
2023-04-01T07:44:33.975Z,85.81
2023-04-01T07:45:34.190Z,86.22
2023-04-01T07:46:34.052Z,85.71
2023-04-01T07:47:34.091Z,85.10
2023-04-01T07:48:33.972Z,85.71
2023-04-01T07:49:34.746Z,85.81
2023-04-01T07:50:33.937Z,85.91
2023-04-01T07:51:33.921Z,86.12
2023-04-01T07:52:33.913Z,86.53
2023-04-01T07:53:33.921Z,86.43
2023-04-01T07:54:33.914Z,85.91
2023-04-01T07:55:34.200Z,85.57
2023-04-01T07:56:33.895Z,84.55
2023-04-01T07:57:33.877Z,85.47
2023-04-01T07:58:33.869Z,84.81
2023-04-01T07:59:34.733Z,84.65
2023-04-01T08:00:33.850Z,84.55
2023-04-01T08:01:34.682Z,84.75
2023-04-01T08:02:33.927Z,84.91
2023-04-01T08:03:33.950Z,84.81
2023-04-01T08:04:33.883Z,84.06
2023-04-01T08:05:34.090Z,84.09
2023-04-01T08:06:34.659Z,84.00
2023-04-01T08:07:33.792Z,83.14
2023-04-01T08:08:33.796Z,83.44
2023-04-01T08:09:33.790Z,83.14
2023-04-01T08:10:33.782Z,83.24
2023-04-01T08:11:34.667Z,83.44
2023-04-01T08:12:33.777Z,83.24
2023-04-01T08:13:33.753Z,82.83
2023-04-01T08:14:33.729Z,82.73
2023-04-01T08:15:33.902Z,82.73
2023-04-01T08:16:33.799Z,82.32
2023-04-01T08:17:33.802Z,82.28
2023-04-01T08:18:33.716Z,82.53
2023-04-01T08:19:33.693Z,82.53
2023-04-01T08:20:33.688Z,82.63
2023-04-01T08:21:34.250Z,83.18
2023-04-01T08:22:33.662Z,83.14
2023-04-01T08:23:33.662Z,82.63
2023-04-01T08:24:44.412Z,82.32
2023-04-01T08:25:35.790Z,82.53
2023-04-01T08:26:33.650Z,82.53
2023-04-01T08:27:34.249Z,82.22
2023-04-01T08:29:41.988Z,83.34
2023-04-01T08:30:42.861Z,83.00
2023-04-01T08:31:42.907Z,82.39
2023-04-01T08:32:44.895Z,82.01
2023-04-01T08:33:45.096Z,82.12
2023-04-01T08:34:44.956Z,82.53
2023-04-01T08:35:43.281Z,82.73
2023-04-01T08:36:44.953Z,82.83
2023-04-01T08:37:43.025Z,82.67
2023-04-01T08:38:43.027Z,83.07
2023-04-01T08:39:43.035Z,84.00
2023-04-01T08:40:43.011Z,83.38
2023-04-01T08:42:30.924Z,82.42
2023-04-01T08:43:31.295Z,82.32
2023-04-01T08:44:32.777Z,82.97
2023-04-01T08:45:31.068Z,82.87
2023-04-01T08:46:31.765Z,83.28
2023-04-01T08:47:30.909Z,83.59
2023-04-01T08:48:30.914Z,83.24
2023-04-01T08:49:30.901Z,82.89
2023-04-01T08:50:31.284Z,83.10
2023-04-01T08:51:31.773Z,82.63
2023-04-01T08:52:30.880Z,82.08
2023-04-01T08:53:30.851Z,81.77
2023-04-01T08:54:30.882Z,81.32
2023-04-01T08:55:30.990Z,81.32
2023-04-01T08:56:31.789Z,80.91
2023-04-01T08:57:30.896Z,81.23
2023-04-01T08:58:32.831Z,81.26
2023-04-01T08:59:32.891Z,81.23
2023-04-01T09:00:32.865Z,81.32
2023-04-01T09:01:31.881Z,81.32
2023-04-01T09:02:31.876Z,81.18
2023-04-01T09:03:33.907Z,81.63
2023-04-01T09:04:31.920Z,81.02
2023-04-01T09:05:32.130Z,81.02
2023-04-01T09:06:31.841Z,80.91
2023-04-01T09:07:31.843Z,81.46
2023-04-01T09:08:32.368Z,81.63
2023-04-01T09:09:31.805Z,81.67
2023-04-01T09:10:33.779Z,81.32
2023-04-01T09:11:31.833Z,81.02
2023-04-01T09:12:34.947Z,81.43
2023-04-01T09:13:33.266Z,81.32
2023-04-01T09:14:31.782Z,81.53
2023-04-01T09:16:46.133Z,81.98
2023-04-01T09:17:45.302Z,81.73
2023-04-01T09:18:45.249Z,81.32
2023-04-01T09:19:45.269Z,81.02
2023-04-01T09:20:48.115Z,81.53
2023-04-01T09:21:49.172Z,81.53
2023-04-01T09:22:47.132Z,81.37
2023-04-01T09:23:48.241Z,81.57
2023-04-01T09:24:47.208Z,81.53
2023-04-01T09:25:46.303Z,81.32
2023-04-01T09:26:46.369Z,81.73
2023-04-01T09:27:46.289Z,81.63
2023-04-01T09:28:46.276Z,81.32
2023-04-01T09:29:46.312Z,81.32
2023-04-01T09:30:46.254Z,81.23
2023-04-01T09:31:46.264Z,81.73
2023-04-01T09:32:46.277Z,81.63
2023-04-01T09:33:46.237Z,81.63
2023-04-01T09:34:46.241Z,81.59
2023-04-01T09:35:48.767Z,81.49
2023-04-01T09:36:46.224Z,81.35
2023-04-01T09:37:46.224Z,80.98
2023-04-01T09:38:46.197Z,81.25
2023-04-01T09:39:46.185Z,80.64
2023-04-01T09:40:46.187Z,80.54
2023-04-01T09:41:46.185Z,80.50
2023-04-01T09:42:46.179Z,80.46
2023-04-01T09:43:46.224Z,80.40
2023-04-01T09:44:46.158Z,81.31
2023-04-01T09:45:46.145Z,81.82
2023-04-01T09:46:46.361Z,81.93
2023-04-01T09:47:46.166Z,81.48
2023-04-01T09:48:46.120Z,80.52
2023-04-01T09:49:46.122Z,79.91
2023-04-01T09:50:46.115Z,80.02
2023-04-01T09:51:47.740Z,79.71
2023-04-01T09:52:46.554Z,80.46
2023-04-01T09:54:34.524Z,81.07
2023-04-01T09:55:35.582Z,81.27
2023-04-01T09:56:34.475Z,81.74
2023-04-01T09:57:34.449Z,81.99
2023-04-01T09:58:35.533Z,82.29
2023-04-01T09:59:37.089Z,81.58
2023-04-01T10:00:35.516Z,81.88
2023-04-01T10:01:35.509Z,81.79
2023-04-01T10:02:35.549Z,81.79
2023-04-01T10:03:35.481Z,81.68
2023-04-01T10:05:08.587Z,81.58
2023-04-01T10:05:35.745Z,81.79
2023-04-01T10:06:35.441Z,82.40
2023-04-01T10:07:35.449Z,81.58
2023-04-01T10:08:35.437Z,81.48
2023-04-01T10:09:35.420Z,80.83
2023-04-01T10:10:35.414Z,81.13
2023-04-01T10:11:35.418Z,80.32
2023-04-01T10:12:35.392Z,81.13
2023-04-01T10:13:35.392Z,81.24
2023-04-01T10:14:35.393Z,80.46
2023-04-01T10:15:35.669Z,81.17
2023-04-01T10:16:35.437Z,81.58
2023-04-01T10:17:35.409Z,82.40
2023-04-01T10:18:36.347Z,82.19
2023-04-01T10:19:35.348Z,81.99
2023-04-01T10:20:35.328Z,82.05
2023-04-01T10:21:35.334Z,81.54
2023-04-01T10:22:36.350Z,81.65
2023-04-01T10:23:36.075Z,82.05
2023-04-01T10:24:35.298Z,82.90
2023-04-01T10:25:36.140Z,82.35
2023-04-01T10:26:35.274Z,82.35
2023-04-01T10:27:35.317Z,81.91
2023-04-01T10:28:35.263Z,81.71
2023-04-01T10:29:35.252Z,80.99
2023-04-01T10:30:35.292Z,80.29
2023-04-01T10:31:35.276Z,80.29
2023-04-01T10:32:35.241Z,80.69
2023-04-01T10:33:35.245Z,80.79
2023-04-01T10:34:35.229Z,81.10
2023-04-01T10:35:35.686Z,81.26
2023-04-01T10:36:35.263Z,81.16
2023-04-01T10:37:35.208Z,81.06
2023-04-01T10:38:36.135Z,81.77
2023-04-01T10:39:35.187Z,80.76
2023-04-01T10:40:35.173Z,80.85
2023-04-01T10:41:35.150Z,80.85
2023-04-01T10:42:35.228Z,80.76
2023-04-01T10:43:35.148Z,81.81
2023-04-01T10:44:35.140Z,81.60
2023-04-01T10:45:35.459Z,81.16
2023-04-01T10:46:35.284Z,80.76
2023-04-01T10:47:35.173Z,80.76
2023-04-01T10:48:35.116Z,80.85
2023-04-01T10:49:35.102Z,81.46
2023-04-01T10:50:35.084Z,81.37
2023-04-01T10:51:35.088Z,81.67
2023-04-01T10:52:35.089Z,81.06
2023-04-01T10:53:35.137Z,80.82
2023-04-01T10:54:35.069Z,80.92
2023-04-01T10:55:35.266Z,80.92
2023-04-01T10:56:35.037Z,81.16
2023-04-01T10:57:35.157Z,80.21
2023-04-01T10:58:35.025Z,81.46
2023-04-01T10:59:35.005Z,81.37
2023-04-01T11:00:34.994Z,82.52
2023-04-01T11:01:35.061Z,83.44
2023-04-01T11:02:36.695Z,83.29
2023-04-01T11:03:35.088Z,82.28
2023-04-01T11:04:34.972Z,80.11
2023-04-01T11:05:35.177Z,80.41
2023-04-01T11:06:34.989Z,80.35
2023-04-01T11:07:34.946Z,80.96
2023-04-01T11:08:34.944Z,81.16
2023-04-01T11:09:34.921Z,80.62
2023-04-01T11:10:34.977Z,80.17
2023-04-01T11:11:34.918Z,80.74
2023-04-01T11:12:34.899Z,78.41
2023-04-01T11:13:34.906Z,78.30
2023-04-01T11:14:34.892Z,78.81
2023-04-01T11:15:35.151Z,79.28
2023-04-01T11:16:34.982Z,78.06
2023-04-01T11:17:34.881Z,76.91
2023-04-01T11:18:34.856Z,77.48
2023-04-01T11:19:34.853Z,76.03
2023-04-01T11:20:34.838Z,75.56
2023-04-01T11:21:34.830Z,75.76
2023-04-01T11:22:34.821Z,75.96
2023-04-01T11:23:34.846Z,76.78
2023-04-01T11:24:35.630Z,77.08
2023-04-01T11:25:34.991Z,77.22
2023-04-01T11:26:34.876Z,76.51
2023-04-01T11:27:34.788Z,76.14
2023-04-01T11:28:34.779Z,77.76
2023-04-01T11:29:34.753Z,77.97
2023-04-01T11:30:34.755Z,78.27
2023-04-01T11:31:34.762Z,77.05
2023-04-01T11:32:34.828Z,77.39
2023-04-01T11:33:34.743Z,77.80
2023-04-01T11:34:34.726Z,77.19
2023-04-01T11:35:35.073Z,77.73
2023-04-01T11:36:34.760Z,78.44
2023-04-01T11:37:34.691Z,79.05
2023-04-01T11:38:34.709Z,78.85
2023-04-01T11:39:34.686Z,77.97
2023-04-01T11:40:34.659Z,79.50
2023-04-01T11:41:34.662Z,78.99
2023-04-01T11:42:34.662Z,79.66
2023-04-01T11:43:34.656Z,80.21
2023-04-01T11:44:34.635Z,78.85
2023-04-01T11:45:34.924Z,79.36
2023-04-01T11:46:34.644Z,79.16
2023-04-01T11:47:34.636Z,80.41
2023-04-01T11:48:34.632Z,81.46
2023-04-01T11:49:34.600Z,81.87
2023-04-01T11:50:34.602Z,81.87
2023-04-01T11:51:34.576Z,82.18
2023-04-01T11:52:34.662Z,82.48
2023-04-01T11:53:34.583Z,82.48
2023-04-01T11:54:34.590Z,82.99
2023-04-01T11:55:34.917Z,82.65
2023-04-01T11:56:34.583Z,81.73
2023-04-01T11:57:34.571Z,81.79
2023-04-01T11:58:34.535Z,81.90
2023-04-01T11:59:34.520Z,81.93
2023-04-01T12:00:34.513Z,81.39
2023-04-01T12:01:34.528Z,81.39
2023-04-01T12:02:34.561Z,81.19
2023-04-01T12:03:34.615Z,81.39
2023-04-01T12:04:34.575Z,81.39
2023-04-01T12:05:34.726Z,81.09
2023-04-01T12:06:34.465Z,80.84
2023-04-01T12:07:34.449Z,80.64
2023-04-01T12:08:34.451Z,80.74
2023-04-01T12:09:34.436Z,79.69
2023-04-01T12:10:34.477Z,78.37
2023-04-01T12:11:34.429Z,78.78
2023-04-01T12:12:34.435Z,78.13
2023-04-01T12:13:34.406Z,77.72
2023-04-01T12:14:34.418Z,77.86
2023-04-01T12:15:34.805Z,78.06
2023-04-01T12:16:34.419Z,78.17
2023-04-01T12:17:34.408Z,79.02
2023-04-01T12:18:34.369Z,78.30
2023-04-01T12:19:34.364Z,78.20
2023-04-01T12:20:34.389Z,78.24
2023-04-01T12:21:34.511Z,78.85
2023-04-01T12:22:34.376Z,79.90
2023-04-01T12:23:34.329Z,80.58
2023-04-01T12:24:34.324Z,80.62
2023-04-01T12:25:34.512Z,80.31
2023-04-01T12:26:34.312Z,81.12
2023-04-01T12:27:34.300Z,80.85
2023-04-01T12:28:34.335Z,80.72
2023-04-01T12:29:34.323Z,80.41
2023-04-01T12:30:34.299Z,80.72
2023-04-01T12:31:34.306Z,81.23
2023-04-01T12:32:34.265Z,80.58
2023-04-01T12:33:36.018Z,80.92
2023-04-01T12:34:34.246Z,81.46
2023-04-01T12:35:34.350Z,80.96
2023-04-01T12:36:35.178Z,81.53
2023-04-01T12:37:34.204Z,81.87
2023-04-01T12:38:34.224Z,81.87
2023-04-01T12:39:35.192Z,81.57
2023-04-01T12:40:34.422Z,82.38
2023-04-01T12:41:34.181Z,83.23
2023-04-01T12:42:34.182Z,83.09
2023-04-01T12:43:34.177Z,83.29
2023-04-01T12:44:34.154Z,82.99
2023-04-01T12:45:34.564Z,82.34
2023-04-01T12:46:34.166Z,82.68
2023-04-01T12:47:34.180Z,81.53
2023-04-01T12:48:34.124Z,81.70
2023-04-01T12:49:34.117Z,81.39
2023-04-01T12:50:34.104Z,80.78
2023-04-01T12:51:34.096Z,80.78
2023-04-01T12:52:34.092Z,80.27
2023-04-01T12:53:34.079Z,79.83
2023-04-01T12:54:34.098Z,79.02
2023-04-01T12:55:34.253Z,78.91
2023-04-01T12:56:34.073Z,79.22
2023-04-01T12:57:34.190Z,79.38